createdAt,value
2023-01-29T00:01:02.190Z,2.6
2023-01-29T00:02:12.013Z,1.9
2023-01-29T00:03:19.620Z,2.5
2023-01-29T00:04:29.221Z,2.3
2023-01-29T00:05:37.914Z,2.4
2023-01-29T00:06:45.558Z,2.6
2023-01-29T00:07:55.290Z,2.7
2023-01-29T00:09:03.911Z,3.1
2023-01-29T00:10:13.816Z,2.4
2023-01-29T00:11:23.256Z,2.1
2023-01-29T00:12:30.939Z,3.1
2023-01-29T00:13:40.659Z,2.6
2023-01-29T00:14:50.340Z,2.5
2023-01-29T00:15:59.039Z,2.7
2023-01-29T00:17:08.760Z,2.2
2023-01-29T00:18:17.426Z,2.2
2023-01-29T00:19:27.103Z,2.6
2023-01-29T00:20:36.769Z,2.2
2023-01-29T00:21:44.454Z,2.3
2023-01-29T00:22:54.191Z,1.8
2023-01-29T00:24:03.892Z,2.5
2023-01-29T00:25:12.505Z,2.4
2023-01-29T00:26:22.191Z,2.3
2023-01-29T00:27:30.851Z,2.1
2023-01-29T00:28:40.544Z,2.1
2023-01-29T00:29:50.183Z,2.9
2023-01-29T00:30:57.946Z,2.1
2023-01-29T00:32:07.640Z,2.6
2023-01-29T00:33:17.176Z,2.7
2023-01-29T00:34:25.875Z,3.1
2023-01-29T00:35:34.593Z,2.5
2023-01-29T00:36:45.214Z,2
2023-01-29T00:37:54.879Z,2.5
2023-01-29T00:39:04.573Z,2.6
2023-01-29T00:40:13.383Z,2.6
2023-01-29T00:41:21.902Z,2.3
2023-01-29T00:42:31.567Z,2.7
2023-01-29T00:43:40.243Z,2.4
2023-01-29T00:44:48.907Z,2.5
2023-01-29T00:45:58.621Z,2.5
2023-01-29T00:47:06.302Z,2.6
2023-01-29T00:48:15.961Z,2.6
2023-01-29T00:49:24.664Z,2.4
2023-01-29T00:50:33.337Z,2.6
2023-01-29T00:51:43.067Z,2.2
2023-01-29T00:52:51.710Z,2.9
2023-01-29T00:54:01.343Z,2.5
2023-01-29T00:55:11.046Z,2.2
2023-01-29T00:56:20.717Z,2.6
2023-01-29T00:57:30.416Z,2.5
2023-01-29T00:58:40.088Z,2.3
2023-01-29T00:59:48.770Z,2.4
2023-01-29T01:00:58.434Z,2.3
2023-01-29T01:02:07.115Z,2.8
2023-01-29T01:03:16.809Z,2.1
2023-01-29T01:04:26.464Z,2.2
2023-01-29T01:05:35.125Z,2
2023-01-29T01:06:44.963Z,2.4
2023-01-29T01:07:52.503Z,2.5
2023-01-29T01:09:01.228Z,2.2
2023-01-29T01:10:11.879Z,2.2
2023-01-29T01:11:21.543Z,2.2
2023-01-29T01:12:31.222Z,2.3
2023-01-29T01:13:40.902Z,2.5
2023-01-29T01:14:49.618Z,2.9
2023-01-29T01:15:59.408Z,2.9
2023-01-29T01:17:08.015Z,2.2
2023-01-29T01:18:16.671Z,2.1
2023-01-29T01:19:26.391Z,2.3
2023-01-29T01:20:36.084Z,2.2
2023-01-29T01:21:44.736Z,3
2023-01-29T01:22:54.417Z,2.8
2023-01-29T01:24:03.096Z,2.3
2023-01-29T01:25:12.748Z,2.1
2023-01-29T01:26:21.411Z,2.6
2023-01-29T01:27:31.077Z,2.4
2023-01-29T01:28:40.798Z,3
2023-01-29T01:29:48.452Z,2.3
2023-01-29T01:30:57.180Z,2.9
2023-01-29T01:32:06.895Z,2.1
2023-01-29T01:33:15.544Z,1.8
2023-01-29T01:34:25.239Z,2.5
2023-01-29T01:35:33.891Z,2.1
2023-01-29T01:36:42.622Z,2.6
2023-01-29T01:37:52.306Z,2.5
2023-01-29T01:39:01.028Z,2
2023-01-29T01:40:10.672Z,2.4
2023-01-29T01:41:20.340Z,2.7
2023-01-29T01:42:28.033Z,2
2023-01-29T01:43:37.740Z,2.5
2023-01-29T01:44:46.404Z,2.5
2023-01-29T01:45:55.086Z,2.3
2023-01-29T01:47:04.749Z,2.2
2023-01-29T01:48:12.399Z,2
2023-01-29T01:49:22.103Z,2.3
2023-01-29T01:50:31.801Z,2.6
2023-01-29T01:51:40.458Z,2.3
2023-01-29T01:52:50.168Z,2
2023-01-29T01:53:58.851Z,2.4
2023-01-29T01:55:07.574Z,2.2
2023-01-29T01:56:16.211Z,2.5
2023-01-29T01:57:23.875Z,2.2
2023-01-29T01:58:33.535Z,2.2
2023-01-29T01:59:43.209Z,2.1
2023-01-29T02:00:50.950Z,2.4
2023-01-29T02:02:00.620Z,2.7
2023-01-29T02:03:10.229Z,2.1
2023-01-29T02:04:18.898Z,2.6
2023-01-29T02:05:28.554Z,2
2023-01-29T02:06:37.218Z,2.2
2023-01-29T02:07:46.891Z,2.7
2023-01-29T02:08:56.549Z,2
2023-01-29T02:10:05.205Z,2.2
2023-01-29T02:11:14.901Z,2.1
2023-01-29T02:12:23.567Z,2.4
2023-01-29T02:13:31.210Z,2.4
2023-01-29T02:14:40.906Z,2.8
2023-01-29T02:15:49.554Z,2.7
2023-01-29T02:16:58.208Z,2.2
2023-01-29T02:18:07.889Z,2.6
2023-01-29T02:19:17.529Z,2.5
2023-01-29T02:20:27.188Z,2.8
2023-01-29T02:21:35.847Z,2.5
2023-01-29T02:22:42.493Z,2.3
2023-01-29T02:23:52.421Z,2.4
2023-01-29T02:25:01.870Z,2.6
2023-01-29T02:26:21.963Z,2
2023-01-29T02:27:31.613Z,2.5
2023-01-29T02:28:40.264Z,2.2
2023-01-29T02:29:49.985Z,2.1
2023-01-29T02:30:59.643Z,2.7
2023-01-29T02:32:09.324Z,2.8
2023-01-29T02:33:18.037Z,2.7
2023-01-29T02:34:27.712Z,2.4
2023-01-29T02:35:36.421Z,2.8
2023-01-29T02:36:45.095Z,2.6
2023-01-29T02:37:54.767Z,2.7
2023-01-29T02:39:04.432Z,3
2023-01-29T02:40:13.205Z,2.2
2023-01-29T02:41:21.836Z,2.1
2023-01-29T02:42:29.520Z,2.4
2023-01-29T02:43:39.190Z,2.4
2023-01-29T02:44:48.955Z,2.3
2023-01-29T02:45:56.664Z,2.5
2023-01-29T02:47:06.364Z,2.3
2023-01-29T02:48:15.033Z,1.9
2023-01-29T02:49:23.702Z,2.6
2023-01-29T02:50:33.367Z,2.5
2023-01-29T02:51:41.043Z,2.9
2023-01-29T02:52:50.761Z,2.3
2023-01-29T02:53:59.384Z,2.4
2023-01-29T02:55:07.060Z,2.9
2023-01-29T02:56:16.748Z,2.6
2023-01-29T02:57:26.494Z,2.6
2023-01-29T02:58:35.317Z,3
2023-01-29T02:59:44.871Z,2.6
2023-01-29T03:00:52.626Z,3
2023-01-29T03:02:00.296Z,2.9
2023-01-29T03:03:09.916Z,2.7
2023-01-29T03:04:17.588Z,2.5
2023-01-29T03:05:27.272Z,2.8
2023-01-29T03:06:35.952Z,2.5
2023-01-29T03:07:44.605Z,3.1
2023-01-29T03:08:54.291Z,2.4
2023-01-29T03:10:01.963Z,2.4
2023-01-29T03:11:10.659Z,2.8
2023-01-29T03:12:20.430Z,2.5
2023-01-29T03:13:28.170Z,2.5
2023-01-29T03:14:37.815Z,2.9
2023-01-29T03:15:46.476Z,3
2023-01-29T03:16:54.122Z,3.1
2023-01-29T03:18:03.788Z,2
2023-01-29T03:19:13.509Z,2.7
2023-01-29T03:20:22.184Z,2.3
2023-01-29T03:21:31.844Z,3
2023-01-29T03:22:39.499Z,2.6
2023-01-29T03:23:49.207Z,2.5
2023-01-29T03:24:57.876Z,2.2
2023-01-29T03:26:05.526Z,2.3
2023-01-29T03:27:15.305Z,2.5
2023-01-29T03:28:24.978Z,2.7
2023-01-29T03:29:33.643Z,2.2
2023-01-29T03:30:43.325Z,2.6
2023-01-29T03:31:51.038Z,2.4
2023-01-29T03:33:00.699Z,2.9
2023-01-29T03:34:09.368Z,2.5
2023-01-29T03:35:17.046Z,3
2023-01-29T03:36:26.727Z,2.9
2023-01-29T03:37:35.410Z,2.6
2023-01-29T03:38:46.092Z,2.3
2023-01-29T03:39:55.793Z,2.5
2023-01-29T03:41:04.467Z,2.7
2023-01-29T03:42:14.151Z,3
2023-01-29T03:43:22.802Z,2.6
2023-01-29T03:44:32.510Z,2.1
2023-01-29T03:45:41.167Z,2.8
2023-01-29T03:46:50.836Z,2.3
2023-01-29T03:47:59.547Z,1.9
2023-01-29T03:49:06.193Z,2.8
2023-01-29T03:50:16.236Z,3
2023-01-29T03:51:24.705Z,3
2023-01-29T03:52:33.359Z,2.6
2023-01-29T03:53:43.038Z,3.1
2023-01-29T03:54:51.742Z,2.9
2023-01-29T03:56:01.421Z,2.5
2023-01-29T03:57:11.217Z,3.1
2023-01-29T03:58:19.896Z,2.8
2023-01-29T03:59:29.573Z,1.8
2023-01-29T04:00:38.290Z,2.9
2023-01-29T04:01:47.013Z,2.7
2023-01-29T04:02:56.695Z,2.7
2023-01-29T04:04:06.440Z,2.4
2023-01-29T04:05:16.040Z,2.9
2023-01-29T04:06:24.711Z,3
2023-01-29T04:07:33.463Z,2.6
2023-01-29T04:08:43.049Z,2.6
2023-01-29T04:09:50.737Z,2.6
2023-01-29T04:10:59.438Z,2.7
2023-01-29T04:12:09.155Z,2.7
2023-01-29T04:13:17.849Z,2.8
2023-01-29T04:14:27.502Z,2.9
2023-01-29T04:15:37.152Z,3.3
2023-01-29T04:16:46.880Z,3.3
2023-01-29T04:17:56.512Z,3.1
2023-01-29T04:19:05.214Z,3.1
2023-01-29T04:20:14.079Z,2.6
2023-01-29T04:21:23.631Z,2.6
2023-01-29T04:22:31.321Z,2.8
2023-01-29T04:23:40.975Z,3.4
2023-01-29T04:24:49.698Z,2.5
2023-01-29T04:25:58.373Z,2.7
2023-01-29T04:27:07.030Z,2.7
2023-01-29T04:28:16.719Z,2.9
2023-01-29T04:29:25.399Z,3.2
2023-01-29T04:30:36.172Z,2.9
2023-01-29T04:31:45.825Z,3.4
2023-01-29T04:32:53.470Z,2.2
2023-01-29T04:34:03.162Z,2.6
2023-01-29T04:35:10.846Z,3.1
2023-01-29T04:36:19.534Z,3
2023-01-29T04:37:29.215Z,2.6
2023-01-29T04:38:37.895Z,2.5
2023-01-29T04:39:46.538Z,2.5
2023-01-29T04:40:55.197Z,2.5
2023-01-29T04:42:04.911Z,2.4
2023-01-29T04:43:13.593Z,2.6
2023-01-29T04:44:21.289Z,2.6
2023-01-29T04:45:31.032Z,2.8
2023-01-29T04:46:40.788Z,3.5
2023-01-29T04:47:49.471Z,3
2023-01-29T04:49:00.146Z,2.8
2023-01-29T04:50:09.831Z,2.9
2023-01-29T04:51:17.510Z,2.8
2023-01-29T04:52:27.221Z,2.9
2023-01-29T04:53:36.940Z,2.9
2023-01-29T04:54:45.599Z,2.5
2023-01-29T04:55:55.264Z,2.9
2023-01-29T04:57:03.943Z,2.8
2023-01-29T04:58:13.611Z,2.6
2023-01-29T04:59:23.323Z,2.6
2023-01-29T05:00:32.985Z,2.7
2023-01-29T05:01:42.700Z,3.2
2023-01-29T05:02:51.390Z,3
2023-01-29T05:04:00.011Z,2.8
2023-01-29T05:05:09.709Z,3.1
2023-01-29T05:06:18.382Z,2.8
2023-01-29T05:07:28.047Z,3
2023-01-29T05:08:37.702Z,3
2023-01-29T05:09:45.364Z,3.4
2023-01-29T05:10:55.043Z,2.7
2023-01-29T05:12:02.706Z,2.9
2023-01-29T05:13:12.392Z,3.1
2023-01-29T05:14:22.048Z,3.3
2023-01-29T05:15:29.768Z,3.2
2023-01-29T05:16:39.473Z,3.4
2023-01-29T05:17:49.193Z,2.6
2023-01-29T05:18:57.885Z,3
2023-01-29T05:20:07.548Z,3.3
2023-01-29T05:21:15.212Z,3
2023-01-29T05:22:23.989Z,2.9
2023-01-29T05:23:33.699Z,3.4
2023-01-29T05:24:42.348Z,3.1
2023-01-29T05:25:52.029Z,2.5
2023-01-29T05:27:00.703Z,3.2
2023-01-29T05:28:09.356Z,2.9
2023-01-29T05:29:19.031Z,3.2
2023-01-29T05:30:26.702Z,3
2023-01-29T05:31:35.413Z,3.1
2023-01-29T05:32:45.058Z,2.8
2023-01-29T05:33:53.742Z,2.8
2023-01-29T05:35:03.456Z,3
2023-01-29T05:36:13.108Z,3.1
2023-01-29T05:37:20.798Z,2.5
2023-01-29T05:38:29.481Z,2.1
2023-01-29T05:39:39.226Z,2.8
2023-01-29T05:40:48.892Z,3
2023-01-29T05:41:58.592Z,3.1
2023-01-29T05:43:06.236Z,2.8
2023-01-29T05:44:15.911Z,2.5
2023-01-29T05:45:24.583Z,2.7
2023-01-29T05:46:32.262Z,2.7
2023-01-29T05:47:41.981Z,2.5
2023-01-29T05:48:49.641Z,2.8
2023-01-29T05:49:58.305Z,3
2023-01-29T05:51:07.987Z,2.6
2023-01-29T05:52:15.637Z,2.6
2023-01-29T05:53:25.301Z,2.7
2023-01-29T05:54:33.953Z,3.3
2023-01-29T05:55:41.636Z,2.5
2023-01-29T05:56:51.319Z,2.6
2023-01-29T05:58:01.010Z,2.9
2023-01-29T05:59:10.672Z,2.4
2023-01-29T06:00:20.352Z,2.9
2023-01-29T06:01:29.074Z,2.6
2023-01-29T06:02:38.773Z,3.3
2023-01-29T06:03:48.482Z,2.9
2023-01-29T06:04:57.160Z,2.5
2023-01-29T06:06:06.845Z,2.7
2023-01-29T06:07:15.508Z,2.9
2023-01-29T06:08:24.217Z,2.9
2023-01-29T06:09:33.902Z,2.3
2023-01-29T06:10:42.579Z,2.2
2023-01-29T06:11:52.267Z,3.1
2023-01-29T06:13:00.948Z,2.9
2023-01-29T06:14:08.662Z,2.7
2023-01-29T06:15:18.370Z,2.9
2023-01-29T06:16:26.071Z,2.8
2023-01-29T06:17:35.709Z,3.1
2023-01-29T06:18:45.374Z,3
2023-01-29T06:19:54.076Z,2.5
2023-01-29T06:21:03.773Z,2.5
2023-01-29T06:22:12.450Z,3
2023-01-29T06:23:20.149Z,2.6
2023-01-29T06:24:27.843Z,3.4
2023-01-29T06:25:37.558Z,2.4
2023-01-29T06:26:46.215Z,3.1
2023-01-29T06:27:58.437Z,2.6
2023-01-29T06:29:05.584Z,3.1
2023-01-29T06:30:13.288Z,2.3
2023-01-29T06:31:37.157Z,2.4
2023-01-29T06:32:33.729Z,2.7
2023-01-29T06:33:43.297Z,3.3
2023-01-29T06:34:52.963Z,2.9
2023-01-29T06:36:00.659Z,3.1
2023-01-29T06:37:10.344Z,2.8
2023-01-29T06:38:20.088Z,2.7
2023-01-29T06:39:29.782Z,2.8
2023-01-29T06:40:39.524Z,2.3
2023-01-29T06:41:49.212Z,2.8
2023-01-29T06:42:58.166Z,3.1
2023-01-29T06:44:06.860Z,3.1
2023-01-29T06:45:14.540Z,3.2
2023-01-29T06:46:24.213Z,3.1
2023-01-29T06:47:32.891Z,3.5
2023-01-29T06:48:40.616Z,3.3
2023-01-29T06:49:50.252Z,2.6
2023-01-29T06:50:57.930Z,3.3
2023-01-29T06:52:05.618Z,3
2023-01-29T06:53:15.301Z,3
2023-01-29T06:54:23.004Z,3.3
2023-01-29T06:55:32.702Z,2.9
2023-01-29T06:56:41.466Z,2.7
2023-01-29T06:57:50.162Z,3.2
2023-01-29T06:58:59.852Z,3.1
2023-01-29T07:00:08.545Z,2.9
2023-01-29T07:01:34.475Z,3.1
2023-01-29T07:02:28.894Z,2.8
2023-01-29T07:03:37.598Z,3.1
2023-01-29T07:04:47.277Z,2.7
2023-01-29T07:05:56.019Z,2.2
2023-01-29T07:07:04.761Z,2.2
2023-01-29T07:08:14.417Z,2.8
2023-01-29T07:09:23.102Z,2.4
2023-01-29T07:10:32.876Z,2.8
2023-01-29T07:11:42.573Z,2.9
2023-01-29T07:12:50.279Z,3.2
2023-01-29T07:13:59.983Z,2.5
2023-01-29T07:15:08.633Z,2.4
2023-01-29T07:16:17.351Z,2.9
2023-01-29T07:17:27.096Z,2.9
2023-01-29T07:18:36.797Z,2.4
2023-01-29T07:19:45.478Z,2.8
2023-01-29T07:20:55.190Z,3.1
2023-01-29T07:22:02.851Z,2.7
2023-01-29T07:23:12.555Z,2.3
2023-01-29T07:24:21.289Z,2.4
2023-01-29T07:25:29.950Z,2.5
2023-01-29T07:26:39.645Z,2.1
2023-01-29T07:27:47.301Z,2.8
2023-01-29T07:28:57.009Z,2.7
2023-01-29T07:30:06.713Z,3
2023-01-29T07:31:15.617Z,2.4
2023-01-29T07:32:24.136Z,2.8
2023-01-29T07:33:33.774Z,2.4
2023-01-29T07:34:42.464Z,2.5
2023-01-29T07:35:52.142Z,2.3
2023-01-29T07:36:59.861Z,2.9
2023-01-29T07:38:09.560Z,2.8
2023-01-29T07:39:19.207Z,2.1
2023-01-29T07:40:26.951Z,2.7
2023-01-29T07:41:35.625Z,2.2
2023-01-29T07:42:45.284Z,2.4
2023-01-29T07:43:52.936Z,2.4
2023-01-29T07:45:02.625Z,2.1
2023-01-29T07:46:12.477Z,2.1
2023-01-29T07:47:21.039Z,2
2023-01-29T07:48:30.772Z,1.7
2023-01-29T07:49:40.470Z,2
2023-01-29T07:50:50.164Z,1.6
2023-01-29T07:51:57.880Z,1.9
2023-01-29T07:53:05.548Z,2.1
2023-01-29T07:54:15.268Z,2.3
2023-01-29T07:55:22.913Z,1.8
2023-01-29T07:56:31.569Z,1.8
2023-01-29T07:57:40.308Z,1.9
2023-01-29T07:58:49.979Z,2
2023-01-29T07:59:59.650Z,2.2
2023-01-29T08:01:08.374Z,2.1
2023-01-29T08:02:17.073Z,2
2023-01-29T08:03:26.745Z,2.2
2023-01-29T08:04:36.429Z,1.7
2023-01-29T08:05:46.114Z,1.9
2023-01-29T08:06:55.815Z,2.2
2023-01-29T08:08:07.189Z,2.5
2023-01-29T08:09:16.210Z,2.2
2023-01-29T08:10:24.919Z,3.3
2023-01-29T08:11:33.642Z,2.8
2023-01-29T08:12:43.313Z,2.4
2023-01-29T08:13:50.993Z,1.8
2023-01-29T08:15:00.766Z,2
2023-01-29T08:16:10.492Z,1.7
2023-01-29T08:17:19.111Z,1.7
2023-01-29T08:18:28.811Z,2.1
2023-01-29T08:19:38.491Z,1.7
2023-01-29T08:20:46.203Z,1.8
2023-01-29T08:21:54.862Z,1.6
2023-01-29T08:23:04.734Z,1.8
2023-01-29T08:24:14.321Z,1.5
2023-01-29T08:25:24.320Z,2
2023-01-29T08:26:32.959Z,1.4
2023-01-29T08:27:41.640Z,1.4
2023-01-29T08:28:51.325Z,1.3
2023-01-29T08:30:00.028Z,1.7
2023-01-29T08:31:08.848Z,1.7
2023-01-29T08:32:18.519Z,1.6
2023-01-29T08:33:38.899Z,1.8
2023-01-29T08:34:38.896Z,1.5
2023-01-29T08:35:47.553Z,1.3
2023-01-29T08:36:56.251Z,1.3
2023-01-29T08:38:05.972Z,1.2
2023-01-29T08:39:15.632Z,1.2
2023-01-29T08:40:25.824Z,1.8
2023-01-29T08:41:36.500Z,1.7
2023-01-29T08:42:44.194Z,1.4
2023-01-29T08:43:53.979Z,1.8
2023-01-29T08:45:03.665Z,2.1
2023-01-29T08:46:12.409Z,1.5
2023-01-29T08:47:22.045Z,1.6
2023-01-29T08:48:30.750Z,1.3
2023-01-29T08:49:39.498Z,1.7
2023-01-29T08:50:49.211Z,1.3
2023-01-29T08:51:56.891Z,1.3
2023-01-29T08:53:06.580Z,1.6
2023-01-29T08:54:15.254Z,1.7
2023-01-29T08:55:24.012Z,1.4
2023-01-29T08:56:33.712Z,0.9
2023-01-29T08:57:42.359Z,1.3
2023-01-29T08:58:51.092Z,1.5
2023-01-29T09:00:00.816Z,1.2
2023-01-29T09:01:08.594Z,1.5
2023-01-29T09:02:18.216Z,1.5
2023-01-29T09:03:26.953Z,1.7
2023-01-29T09:04:34.818Z,1.8
2023-01-29T09:05:44.538Z,1.6
2023-01-29T09:06:52.231Z,1.7
2023-01-29T09:08:00.932Z,1.3
2023-01-29T09:09:10.641Z,1.2
2023-01-29T09:10:19.360Z,1.5
2023-01-29T09:11:29.101Z,2
2023-01-29T09:12:36.897Z,1.7
2023-01-29T09:13:45.589Z,1.5
2023-01-29T09:14:55.305Z,1.7
2023-01-29T09:16:05.041Z,1.3
2023-01-29T09:17:13.755Z,1.7
2023-01-29T09:18:23.420Z,1.2
2023-01-29T09:19:33.109Z,1.4
2023-01-29T09:20:42.801Z,1.3
2023-01-29T09:21:52.512Z,1.4
2023-01-29T09:23:00.202Z,1.3
2023-01-29T09:24:09.916Z,1.3
2023-01-29T09:25:17.992Z,1.3
2023-01-29T09:26:26.330Z,1.3
2023-01-29T09:27:35.949Z,1.6
2023-01-29T09:28:44.630Z,1.4
2023-01-29T09:29:54.387Z,1.4
2023-01-29T09:31:03.331Z,1.2
2023-01-29T09:32:11.841Z,1.6
2023-01-29T09:33:20.572Z,1.4
2023-01-29T09:34:30.275Z,1.6
2023-01-29T09:35:38.995Z,1.6
2023-01-29T09:36:48.669Z,1.2
2023-01-29T09:37:58.360Z,1.9
2023-01-29T09:39:08.075Z,1.4
2023-01-29T09:40:17.786Z,2
2023-01-29T09:41:25.597Z,1.6
2023-01-29T09:42:35.858Z,1.6
2023-01-29T09:43:42.966Z,1.7
2023-01-29T09:44:52.640Z,1.5
2023-01-29T09:46:02.415Z,1.6
2023-01-29T09:47:10.140Z,1.3
2023-01-29T09:48:19.855Z,1.8
2023-01-29T09:49:28.613Z,1.3
2023-01-29T09:50:38.349Z,1.5
2023-01-29T09:51:48.052Z,1.6
2023-01-29T09:52:56.747Z,1.2
2023-01-29T09:54:06.441Z,1.4
2023-01-29T09:55:16.300Z,1.2
2023-01-29T09:56:24.881Z,1.4
2023-01-29T09:57:34.569Z,1.7
2023-01-29T09:58:43.268Z,1.5
2023-01-29T09:59:51.987Z,1.2
2023-01-29T10:01:01.787Z,1.8
2023-01-29T10:02:09.563Z,1.8
2023-01-29T10:03:18.110Z,1.4
2023-01-29T10:04:27.861Z,1.8
2023-01-29T10:05:35.453Z,1.2
2023-01-29T10:06:45.131Z,1.5
2023-01-29T10:07:52.818Z,1.8
2023-01-29T10:09:02.544Z,1.8
2023-01-29T10:10:12.269Z,1.6
2023-01-29T10:11:21.962Z,1.9
2023-01-29T10:12:31.634Z,2
2023-01-29T10:13:41.348Z,1.7
2023-01-29T10:14:50.049Z,1.9
2023-01-29T10:15:59.829Z,1.7
2023-01-29T10:17:09.639Z,1.6
2023-01-29T10:18:19.228Z,1.8
2023-01-29T10:19:28.935Z,1.3
2023-01-29T10:20:38.636Z,2.1
2023-01-29T10:21:47.359Z,1.7
2023-01-29T10:22:57.027Z,1.5
2023-01-29T10:24:06.771Z,1.3
2023-01-29T10:25:15.970Z,1.3
2023-01-29T10:26:25.291Z,1.4
2023-01-29T10:27:37.359Z,1.2
2023-01-29T10:28:46.078Z,1.6
2023-01-29T10:29:55.820Z,1.4
2023-01-29T10:31:04.716Z,1
2023-01-29T10:32:14.351Z,1.4
2023-01-29T10:33:22.994Z,1.3
2023-01-29T10:34:30.754Z,0.9
2023-01-29T10:35:40.565Z,1.7
2023-01-29T10:36:49.241Z,1.4
2023-01-29T10:37:57.970Z,1.6
2023-01-29T10:39:07.743Z,1.3
2023-01-29T10:40:17.428Z,1.4
2023-01-29T10:41:27.176Z,1.3
2023-01-29T10:42:35.963Z,1.4
2023-01-29T10:43:45.660Z,1.2
2023-01-29T10:44:55.459Z,1.5
2023-01-29T10:46:05.330Z,1.2
2023-01-29T10:47:14.149Z,1.4
2023-01-29T10:48:23.749Z,1.7
2023-01-29T10:49:32.457Z,1.3
2023-01-29T10:50:42.277Z,2
2023-01-29T10:51:51.033Z,1.3
2023-01-29T10:52:58.737Z,1.4
2023-01-29T10:54:08.427Z,1.3
2023-01-29T10:55:17.471Z,1.1
2023-01-29T10:56:26.959Z,1.9
2023-01-29T10:57:36.746Z,1.5
2023-01-29T10:58:46.817Z,1
2023-01-29T10:59:56.895Z,1.6
2023-01-29T11:01:05.607Z,1.4
2023-01-29T11:02:14.316Z,1.4
2023-01-29T11:03:28.754Z,1.1
2023-01-29T11:04:32.698Z,1.7
2023-01-29T11:05:41.372Z,1.7
2023-01-29T11:06:51.052Z,1.8
2023-01-29T11:07:59.771Z,1.5
2023-01-29T11:09:09.504Z,1.5
2023-01-29T11:10:18.395Z,2.1
2023-01-29T11:11:25.836Z,1.4
2023-01-29T11:12:35.524Z,1.5
2023-01-29T11:13:44.234Z,1.5
2023-01-29T11:14:52.950Z,1.5
2023-01-29T11:16:02.644Z,1.9
2023-01-29T11:17:10.435Z,1.5
2023-01-29T11:18:20.129Z,1.7
2023-01-29T11:19:28.894Z,1.9
2023-01-29T11:20:38.646Z,1.5
2023-01-29T11:21:48.340Z,1.6
2023-01-29T11:22:56.075Z,1.7
2023-01-29T11:24:04.778Z,1.9
2023-01-29T11:25:14.471Z,2
2023-01-29T11:26:23.210Z,1.9
2023-01-29T11:27:32.934Z,1.8
2023-01-29T11:28:42.661Z,1.6
2023-01-29T11:29:52.320Z,1.7
2023-01-29T11:31:02.130Z,1.4
2023-01-29T11:32:10.744Z,1.5
2023-01-29T11:33:19.426Z,1.8
2023-01-29T11:34:29.119Z,1.6
2023-01-29T11:35:37.851Z,1.8
2023-01-29T11:36:47.550Z,1.5
2023-01-29T11:37:56.266Z,1.5
2023-01-29T11:39:04.952Z,1.9
2023-01-29T11:40:15.595Z,1.2
2023-01-29T11:41:25.149Z,1.6
2023-01-29T11:42:33.872Z,1.8
2023-01-29T11:43:43.590Z,1.8
2023-01-29T11:44:52.301Z,2
2023-01-29T11:46:02.090Z,1.6
2023-01-29T11:47:11.729Z,1.8
2023-01-29T11:48:19.576Z,1.6
2023-01-29T11:49:29.299Z,1.7
2023-01-29T11:50:38.985Z,1.7
2023-01-29T11:51:47.699Z,1.6
2023-01-29T11:52:57.497Z,2
2023-01-29T11:54:06.261Z,1.6
2023-01-29T11:55:15.965Z,1.4
2023-01-29T11:56:24.638Z,2.2
2023-01-29T11:57:32.311Z,1.8
2023-01-29T11:58:42.014Z,1.9
2023-01-29T11:59:50.805Z,1.4
2023-01-29T12:00:59.489Z,1.8
2023-01-29T12:02:09.188Z,1.9
2023-01-29T12:03:18.906Z,1.5
2023-01-29T12:04:28.608Z,1.9
2023-01-29T12:05:37.324Z,1.8
2023-01-29T12:06:44.990Z,1.4
2023-01-29T12:07:54.659Z,1.6
2023-01-29T12:09:02.374Z,1.7
2023-01-29T12:10:11.084Z,1.7
2023-01-29T12:11:20.818Z,1.6
2023-01-29T12:12:28.470Z,1.3
2023-01-29T12:13:38.222Z,1.3
2023-01-29T12:14:46.883Z,1.7
2023-01-29T12:15:55.553Z,1.6
2023-01-29T12:17:05.278Z,1.4
2023-01-29T12:18:13.964Z,1.7
2023-01-29T12:19:22.700Z,1.2
2023-01-29T12:20:32.465Z,1.7
2023-01-29T12:21:41.118Z,1.6
2023-01-29T12:22:50.834Z,1.5
2023-01-29T12:24:00.521Z,1.6
2023-01-29T12:25:08.208Z,1.5
2023-01-29T12:26:16.940Z,1.6
2023-01-29T12:27:26.569Z,1.6
2023-01-29T12:28:35.303Z,1.6
2023-01-29T12:29:45.001Z,1.7
2023-01-29T12:30:54.700Z,1.6
2023-01-29T12:32:03.430Z,1.6
2023-01-29T12:33:13.126Z,1.9
2023-01-29T12:34:20.805Z,1.9
2023-01-29T12:35:29.493Z,1.6
2023-01-29T12:36:39.177Z,1.7
2023-01-29T12:37:48.858Z,1.8
2023-01-29T12:38:58.579Z,1.8
2023-01-29T12:40:07.292Z,1.6
2023-01-29T12:41:16.013Z,1.9
2023-01-29T12:42:25.710Z,1.9
2023-01-29T12:43:34.374Z,1.8
2023-01-29T12:44:43.023Z,2
2023-01-29T12:45:52.740Z,1.9
2023-01-29T12:47:03.518Z,1.9
2023-01-29T12:48:13.104Z,2
2023-01-29T12:49:21.809Z,1.8
2023-01-29T12:50:30.489Z,1.5
2023-01-29T12:51:40.212Z,1.9
2023-01-29T12:52:49.905Z,1.7
2023-01-29T12:53:59.695Z,2.5
2023-01-29T12:55:09.270Z,1.7
2023-01-29T12:56:17.983Z,2.5
2023-01-29T12:57:27.713Z,1.7
2023-01-29T12:58:37.411Z,1.5
2023-01-29T12:59:45.140Z,1.6
2023-01-29T13:00:54.794Z,1.9
2023-01-29T13:02:04.465Z,2
2023-01-29T13:03:13.222Z,1.7
2023-01-29T13:04:22.825Z,2
2023-01-29T13:05:31.514Z,1.6
2023-01-29T13:06:41.212Z,1.6
2023-01-29T13:07:49.918Z,1.6
2023-01-29T13:08:58.590Z,1.8
2023-01-29T13:10:08.285Z,1.9
2023-01-29T13:11:16.969Z,2.3
2023-01-29T13:12:25.660Z,2.7
2023-01-29T13:13:35.326Z,2.1
2023-01-29T13:14:44.051Z,2.1
2023-01-29T13:15:53.736Z,2.8
2023-01-29T13:17:02.406Z,2.4
2023-01-29T13:18:11.072Z,1.8
2023-01-29T13:19:20.780Z,1.9
2023-01-29T13:20:30.684Z,1.8
2023-01-29T13:21:40.212Z,1.8
2023-01-29T13:22:49.922Z,1.9
2023-01-29T13:23:59.580Z,1.7
2023-01-29T13:25:09.259Z,1.9
2023-01-29T13:26:19.010Z,1.8
2023-01-29T13:27:27.636Z,2
2023-01-29T13:28:37.370Z,2.3
2023-01-29T13:29:46.092Z,1.8
2023-01-29T13:30:55.837Z,1.7
2023-01-29T13:32:05.536Z,2
2023-01-29T13:33:15.892Z,2.1
2023-01-29T13:34:25.923Z,1.7
2023-01-29T13:35:34.590Z,1.9
2023-01-29T13:36:43.301Z,1.8
2023-01-29T13:37:53.038Z,2
2023-01-29T13:39:00.765Z,2.1
2023-01-29T13:40:10.485Z,2.2
2023-01-29T13:41:20.247Z,2.2
2023-01-29T13:42:29.947Z,2.1
2023-01-29T13:43:39.636Z,2.2
2023-01-29T13:44:49.331Z,2.1
2023-01-29T13:45:57.011Z,2.8
2023-01-29T13:47:06.710Z,1.9
2023-01-29T13:48:15.334Z,1.8
2023-01-29T13:49:25.130Z,1.6
2023-01-29T13:50:34.846Z,1.8
2023-01-29T13:51:43.510Z,1.4
2023-01-29T13:52:53.182Z,1.4
2023-01-29T13:54:02.910Z,1.3
2023-01-29T13:55:12.611Z,2.2
2023-01-29T13:56:22.279Z,1.6
2023-01-29T13:57:30.963Z,1.7
2023-01-29T13:58:39.638Z,1.9
2023-01-29T13:59:49.333Z,1.9
2023-01-29T14:00:58.109Z,1.8
2023-01-29T14:02:07.872Z,1.8
2023-01-29T14:03:16.475Z,1.6
2023-01-29T14:04:25.157Z,1.6
2023-01-29T14:05:34.843Z,2
2023-01-29T14:06:43.531Z,1.3
2023-01-29T14:07:54.289Z,1.7
2023-01-29T14:09:03.953Z,2.2
2023-01-29T14:10:14.167Z,2.4
2023-01-29T14:11:23.347Z,1.4
2023-01-29T14:12:33.057Z,1.4
2023-01-29T14:13:40.709Z,1.6
2023-01-29T14:14:50.471Z,2.1
2023-01-29T14:15:59.145Z,2.2
2023-01-29T14:17:07.851Z,2.2
2023-01-29T14:18:17.624Z,2.2
2023-01-29T14:19:27.305Z,1.6
2023-01-29T14:20:45.783Z,1.8
2023-01-29T14:21:47.638Z,2.1
2023-01-29T14:22:55.310Z,2.2
2023-01-29T14:24:05.038Z,2.2
2023-01-29T14:25:14.969Z,2
2023-01-29T14:26:22.445Z,2.3
2023-01-29T14:27:32.258Z,2.2
2023-01-29T14:28:41.940Z,1.8
2023-01-29T14:29:50.685Z,2
2023-01-29T14:30:59.493Z,2
2023-01-29T14:32:07.007Z,1.8
2023-01-29T14:33:16.687Z,2.3
2023-01-29T14:34:26.374Z,1.9
2023-01-29T14:35:36.095Z,1.8
2023-01-29T14:36:45.789Z,2.2
2023-01-29T14:37:54.453Z,1.8
2023-01-29T14:39:03.141Z,1.8
2023-01-29T14:40:12.833Z,2.1
2023-01-29T14:41:21.550Z,1.9
2023-01-29T14:42:30.276Z,2.3
2023-01-29T14:43:39.989Z,2.5
2023-01-29T14:44:48.624Z,1.9
2023-01-29T14:45:58.306Z,2
2023-01-29T14:47:06.996Z,1.5
2023-01-29T14:48:15.673Z,2
2023-01-29T14:49:25.371Z,2
2023-01-29T14:50:34.060Z,2
2023-01-29T14:51:43.815Z,1.9
2023-01-29T14:52:53.545Z,2.2
2023-01-29T14:54:03.466Z,2.1
2023-01-29T14:55:13.123Z,1.7
2023-01-29T14:56:21.782Z,1.5
2023-01-29T14:57:30.444Z,1.9
2023-01-29T14:58:40.196Z,1.7
2023-01-29T14:59:48.854Z,1.6
2023-01-29T15:00:58.529Z,2.4
2023-01-29T15:02:08.199Z,1.9
2023-01-29T15:03:16.872Z,1.5
2023-01-29T15:04:24.609Z,2
2023-01-29T15:05:33.293Z,1.4
2023-01-29T15:06:42.949Z,1.7
2023-01-29T15:07:52.639Z,1.7
2023-01-29T15:09:01.296Z,1.8
2023-01-29T15:10:22.226Z,1.8
2023-01-29T15:11:21.707Z,1.6
2023-01-29T15:12:30.374Z,1.5
2023-01-29T15:13:40.039Z,1.8
2023-01-29T15:14:49.776Z,2.3
2023-01-29T15:15:57.543Z,1.4
2023-01-29T15:17:07.128Z,1.6
2023-01-29T15:18:14.830Z,2
2023-01-29T15:19:24.728Z,1.9
2023-01-29T15:20:34.459Z,1.8
2023-01-29T15:21:44.138Z,1.9
2023-01-29T15:22:53.882Z,2
2023-01-29T15:24:03.560Z,2.2
2023-01-29T15:25:11.248Z,1.9
2023-01-29T15:26:21.008Z,1.5
2023-01-29T15:27:28.651Z,1.8
2023-01-29T15:28:37.333Z,1.9
2023-01-29T15:29:47.009Z,1.7
2023-01-29T15:30:54.841Z,2.3
2023-01-29T15:32:04.466Z,1.7
2023-01-29T15:33:14.179Z,2
2023-01-29T15:34:23.811Z,1.9
2023-01-29T15:35:33.491Z,2.1
2023-01-29T15:36:42.181Z,1.7
2023-01-29T15:37:50.859Z,2.1
2023-01-29T15:39:00.583Z,2.1
2023-01-29T15:40:08.260Z,2.2
2023-01-29T15:41:17.945Z,2.2
2023-01-29T15:42:26.607Z,2.4
2023-01-29T15:43:36.287Z,1.9
2023-01-29T15:44:45.066Z,2.5
2023-01-29T15:45:53.679Z,2.4
2023-01-29T15:47:02.420Z,2.2
2023-01-29T15:48:10.031Z,1.6
2023-01-29T15:49:17.712Z,2.2
2023-01-29T15:50:27.447Z,2.7
2023-01-29T15:51:37.121Z,2.3
2023-01-29T15:52:44.805Z,2
2023-01-29T15:53:53.476Z,1.9
2023-01-29T15:55:01.141Z,1.8
2023-01-29T15:56:09.847Z,2.2
2023-01-29T15:57:19.524Z,3.1
2023-01-29T15:58:28.195Z,2.2